Terminal Aerodrome Forecast
Issued by NWS

Home | Current Version | Previous Version | Text Only | Print | Product List | Glossary On
Versions: 1 2 3 4 5 6 7 8 9 10 11 12 13 14 15 16 17 18
608
FTUS43 KAPX 241727
TAFPLN
TAF
KPLN 241727Z 2418/2518 31010KT P6SM FEW040
     FM250100 30005KT P6SM BKN070
     FM250300 30004KT P6SM VCSH BKN050
     FM250600 31004KT P6SM VCSH OVC050
     FM251000 32004KT P6SM VCSH OVC025=

USA.gov is the U.S. government's official web portal to all federal, state and local government web resources and services.